createdAt,value
2019-04-07T00:01:19.403Z,96439.06
2019-04-07T00:03:46.062Z,96439.13
2019-04-07T00:06:12.712Z,96443.63
2019-04-07T00:08:39.588Z,96441.38
2019-04-07T00:11:06.417Z,96436.64
2019-04-07T00:13:32.998Z,96444.27
2019-04-07T00:16:00.304Z,96442.91
2019-04-07T00:18:28.239Z,96440.27
2019-04-07T00:20:55.227Z,96432.22
2019-04-07T00:23:21.817Z,96437.01
2019-04-07T00:25:48.684Z,96434.23
2019-04-07T00:28:15.267Z,96436.73
2019-04-07T00:30:42.529Z,96426.63
2019-04-07T00:33:09.282Z,96429.27
2019-04-07T00:35:36.531Z,96431.29
2019-04-07T00:38:09.582Z,96425.63
2019-04-07T00:40:37.086Z,96429.09
2019-04-07T00:43:04.516Z,96428.38
2019-04-07T00:45:31.621Z,96429.70
2019-04-07T00:47:59.632Z,96435.98
2019-04-07T00:50:26.522Z,96425.01
2019-04-07T00:52:53.171Z,96428.02
2019-04-07T00:55:21.014Z,96422.83
2019-04-07T00:57:48.242Z,96425.16
2019-04-07T01:00:16.603Z,96430.59
2019-04-07T01:02:44.078Z,96425.01
2019-04-07T01:05:10.648Z,96425.09
2019-04-07T01:07:37.241Z,96424.45
2019-04-07T01:10:05.044Z,96430.28
2019-04-07T01:12:31.942Z,96422.90
2019-04-07T01:14:58.759Z,96417.79
2019-04-07T01:17:26.945Z,96423.34
2019-04-07T01:19:53.743Z,96427.30
2019-04-07T01:22:20.816Z,96423.27
2019-04-07T01:24:49.470Z,96415.64
2019-04-07T01:27:16.096Z,96419.84
2019-04-07T01:29:43.200Z,96419.03
2019-04-07T01:32:10.246Z,96412.01
2019-04-07T01:34:36.942Z,96414.41
2019-04-07T01:37:03.630Z,96410.09
2019-04-07T01:39:31.509Z,96411.73
2019-04-07T01:41:58.983Z,96414.19
2019-04-07T01:44:25.699Z,96405.00
2019-04-07T01:46:52.486Z,96403.55
2019-04-07T01:49:19.482Z,96410.68
2019-04-07T01:51:46.504Z,96410.08
2019-04-07T01:54:13.514Z,96408.97
2019-04-07T01:56:40.268Z,96406.71
2019-04-07T01:59:10.539Z,96405.05
2019-04-07T02:01:36.465Z,96407.31
2019-04-07T02:04:03.942Z,96403.68
2019-04-07T02:06:31.142Z,96401.82
2019-04-07T02:08:58.302Z,96398.84
2019-04-07T02:11:25.150Z,96400.74
2019-04-07T02:13:51.761Z,96400.12
2019-04-07T02:16:19.182Z,96391.80
2019-04-07T02:18:46.571Z,96394.48
2019-04-07T02:21:13.332Z,96394.63
2019-04-07T02:23:41.475Z,96396.52
2019-04-07T02:26:08.769Z,96395.15
2019-04-07T02:28:35.829Z,96392.70
2019-04-07T02:31:02.670Z,96387.51
2019-04-07T02:33:29.485Z,96389.80
2019-04-07T02:36:12.080Z,96384.27
2019-04-07T02:38:27.872Z,96385.08
2019-04-07T02:40:55.715Z,96383.66
2019-04-07T02:46:06.775Z,96379.70
2019-04-07T02:48:33.894Z,96375.52
2019-04-07T02:51:01.277Z,96377.55
2019-04-07T02:53:28.827Z,96376.31
2019-04-07T02:55:55.483Z,96378.39
2019-04-07T02:58:22.821Z,96377.53
2019-04-07T03:00:50.735Z,96381.37
2019-04-07T03:03:18.688Z,96380.02
2019-04-07T03:05:45.639Z,96390.20
2019-04-07T03:08:12.290Z,96388.79
2019-04-07T03:10:38.970Z,96387.89
2019-04-07T03:13:06.212Z,96386.67
2019-04-07T03:15:34.324Z,96388.05
2019-04-07T03:18:01.083Z,96390.70
2019-04-07T03:20:28.128Z,96386.06
2019-04-07T03:22:55.903Z,96381.64
2019-04-07T03:28:08.757Z,96380.15
2019-04-07T03:30:38.150Z,96376.77
2019-04-07T03:33:07.849Z,96379.51
2019-04-07T03:35:34.803Z,96381.01
2019-04-07T03:38:02.031Z,96379.80
2019-04-07T03:40:28.686Z,96377.34
2019-04-07T03:42:55.630Z,96379.86
2019-04-07T03:45:22.518Z,96376.75
2019-04-07T03:47:49.129Z,96375.66
2019-04-07T03:50:16.587Z,96374.04
2019-04-07T03:52:43.245Z,96375.14
2019-04-07T03:55:10.116Z,96366.56
2019-04-07T03:57:37.181Z,96376.97
2019-04-07T04:00:04.215Z,96370.39
2019-04-07T04:02:31.563Z,96368.25
2019-04-07T04:04:58.493Z,96370.14
2019-04-07T04:07:31.594Z,96376.14
2019-04-07T04:09:53.791Z,96375.13
2019-04-07T04:12:21.257Z,96370.70
2019-04-07T04:14:48.732Z,96367.27
2019-04-07T04:17:16.455Z,96366.56
2019-04-07T04:19:43.994Z,96368.08
2019-04-07T04:22:11.617Z,96364.23
2019-04-07T04:24:38.280Z,96362.30
2019-04-07T04:27:04.924Z,96362.44
2019-04-07T04:29:31.821Z,96356.89
2019-04-07T04:31:59.640Z,96357.91
2019-04-07T04:34:27.135Z,96362.16
2019-04-07T04:36:54.523Z,96364.88
2019-04-07T04:39:21.487Z,96366.59
2019-04-07T04:41:49.016Z,96372.63
2019-04-07T04:44:18.449Z,96364.81
2019-04-07T04:46:45.355Z,96365.23
2019-04-07T04:49:12.019Z,96366.09
2019-04-07T04:51:39.939Z,96367.30
2019-04-07T04:54:08.313Z,96366.50
2019-04-07T04:56:35.944Z,96370.44
2019-04-07T04:59:02.727Z,96371.05
2019-04-07T05:01:29.412Z,96374.67
2019-04-07T05:03:56.020Z,96374.55
2019-04-07T05:06:22.928Z,96375.15
2019-04-07T05:08:49.972Z,96379.91
2019-04-07T05:11:16.743Z,96383.53
2019-04-07T05:13:44.621Z,96382.92
2019-04-07T05:16:11.847Z,96383.44
2019-04-07T05:18:38.715Z,96390.19
2019-04-07T05:21:05.556Z,96384.12
2019-04-07T05:26:18.965Z,96389.97
2019-04-07T05:28:45.944Z,96391.94
2019-04-07T05:31:13.286Z,96393.59
2019-04-07T05:33:40.005Z,96391.51
2019-04-07T05:36:06.975Z,96391.23
2019-04-07T05:38:34.430Z,96391.38
2019-04-07T05:41:01.694Z,96387.98
2019-04-07T05:43:28.438Z,96390.70
2019-04-07T05:45:55.492Z,96390.92
2019-04-07T05:48:22.748Z,96389.73
2019-04-07T05:50:49.337Z,96386.87
2019-04-07T05:53:15.947Z,96390.61
2019-04-07T05:55:42.818Z,96389.58
2019-04-07T05:58:09.418Z,96397.33
2019-04-07T06:00:36.230Z,96393.74
2019-04-07T06:03:06.523Z,96403.13
2019-04-07T06:05:31.127Z,96405.95
2019-04-07T06:08:00.861Z,96403.40
2019-04-07T06:10:28.689Z,96398.86
2019-04-07T06:12:55.390Z,96396.12
2019-04-07T06:15:23.388Z,96403.22
2019-04-07T06:17:50.165Z,96404.80
2019-04-07T06:20:18.896Z,96400.26
2019-04-07T06:22:46.988Z,96401.80
2019-04-07T06:25:14.167Z,96401.65
2019-04-07T06:27:44.916Z,96411.28
2019-04-07T06:30:09.786Z,96409.59
2019-04-07T06:32:38.405Z,96407.53
2019-04-07T06:35:05.092Z,96408.44
2019-04-07T06:37:31.838Z,96405.28
2019-04-07T06:40:01.083Z,96409.47
2019-04-07T06:42:31.559Z,96407.87
2019-04-07T06:44:56.684Z,96401.33
2019-04-07T06:47:25.007Z,96401.98
2019-04-07T06:49:52.072Z,96405.61
2019-04-07T06:52:19.285Z,96405.60
2019-04-07T06:54:52.024Z,96405.61
2019-04-07T06:57:15.965Z,96402.10
2019-04-07T06:59:45.640Z,96396.97
2019-04-07T07:02:12.092Z,96397.47
2019-04-07T07:04:41.587Z,96400.58
2019-04-07T07:07:07.400Z,96401.34
2019-04-07T07:09:34.025Z,96397.80
2019-04-07T07:12:00.702Z,96399.34
2019-04-07T07:14:38.034Z,96401.55
2019-04-07T07:16:56.561Z,96406.00
2019-04-07T07:19:26.341Z,96401.81
2019-04-07T07:21:52.262Z,96401.63
2019-04-07T07:24:25.405Z,96403.69
2019-04-07T07:26:56.999Z,96406.34
2019-04-07T07:29:22.359Z,96403.92
2019-04-07T07:31:53.064Z,96406.27
2019-04-07T07:34:30.454Z,96409.27
2019-04-07T07:37:13.318Z,96401.03
2019-04-07T07:39:57.976Z,96405.18
2019-04-07T07:42:25.730Z,96407.19
2019-04-07T07:44:53.569Z,96401.50
2019-04-07T07:47:23.023Z,96402.33
2019-04-07T07:50:08.956Z,96404.09
2019-04-07T07:52:39.868Z,96407.40
2019-04-07T07:55:13.104Z,96401.41
2019-04-07T08:00:28.289Z,96411.23
2019-04-07T08:02:56.144Z,96411.62
2019-04-07T08:05:31.715Z,96409.92
2019-04-07T08:08:02.407Z,96412.07
2019-04-07T08:10:34.268Z,96412.86
2019-04-07T08:13:07.868Z,96412.38
2019-04-07T08:15:34.781Z,96405.28
2019-04-07T08:18:07.041Z,96406.26
2019-04-07T08:23:22.015Z,96411.33
2019-04-07T08:25:52.905Z,96412.31
2019-04-07T08:28:24.461Z,96411.64
2019-04-07T08:30:56.419Z,96414.16
2019-04-07T08:33:24.794Z,96414.38
2019-04-07T08:35:54.874Z,96411.70
2019-04-07T08:38:25.311Z,96415.98
2019-04-07T08:41:10.173Z,96417.08
2019-04-07T08:43:39.839Z,96414.50
2019-04-07T08:46:11.109Z,96420.16
2019-04-07T08:48:38.949Z,96418.36
2019-04-07T08:51:11.266Z,96415.74
2019-04-07T08:53:43.564Z,96424.28
2019-04-07T08:56:13.176Z,96420.80
2019-04-07T08:58:42.862Z,96420.23
2019-04-07T09:01:10.524Z,96416.35
2019-04-07T09:03:37.200Z,96424.63
2019-04-07T09:06:04.565Z,96423.04
2019-04-07T09:08:34.641Z,96425.42
2019-04-07T09:11:06.056Z,96421.45
2019-04-07T09:13:34.223Z,96422.78
2019-04-07T09:16:01.159Z,96413.45
2019-04-07T09:18:27.759Z,96420.63
2019-04-07T09:23:40.416Z,96424.40
2019-04-07T09:26:01.563Z,96423.91
2019-04-07T09:28:28.521Z,96422.36
2019-04-07T09:30:56.340Z,96417.65
2019-04-07T09:33:27.603Z,96413.88
2019-04-07T09:38:40.917Z,96411.45
2019-04-07T09:41:09.480Z,96409.80
2019-04-07T09:46:24.207Z,96405.87
2019-04-07T09:48:52.825Z,96404.91
2019-04-07T09:51:22.772Z,96407.34
2019-04-07T09:53:52.398Z,96406.52
2019-04-07T09:56:20.050Z,96408.31
2019-04-07T09:58:47.653Z,96412.22
2019-04-07T10:01:18.954Z,96410.66
2019-04-07T10:03:42.765Z,96413.34
2019-04-07T10:06:10.617Z,96409.89
2019-04-07T10:08:40.841Z,96411.70
2019-04-07T10:11:08.510Z,96417.69
2019-04-07T10:13:49.664Z,96414.19
2019-04-07T10:16:11.910Z,96406.83
2019-04-07T10:18:40.101Z,96414.23
2019-04-07T10:21:14.293Z,96409.23
2019-04-07T10:23:40.695Z,96412.35
2019-04-07T10:26:09.618Z,96414.23
2019-04-07T10:28:40.901Z,96417.89
2019-04-07T10:31:09.256Z,96406.90
2019-04-07T10:33:37.813Z,96406.77
2019-04-07T10:36:09.337Z,96405.93
2019-04-07T10:38:41.427Z,96412.44
2019-04-07T10:41:10.721Z,96409.73
2019-04-07T10:46:28.344Z,96399.53
2019-04-07T10:48:57.837Z,96403.91
2019-04-07T10:51:34.378Z,96404.30
2019-04-07T10:54:03.779Z,96407.12
2019-04-07T10:56:30.849Z,96403.25
2019-04-07T10:58:59.687Z,96403.28
2019-04-07T11:01:33.632Z,96400.39
2019-04-07T11:04:00.389Z,96398.75
2019-04-07T11:06:27.321Z,96401.63
2019-04-07T11:08:56.811Z,96391.83
2019-04-07T11:11:28.597Z,96391.56
2019-04-07T11:13:56.980Z,96393.16
2019-04-07T11:16:27.254Z,96388.17
2019-04-07T11:18:58.539Z,96388.20
2019-04-07T11:21:34.950Z,96386.89
2019-04-07T11:26:48.558Z,96379.93
2019-04-07T11:29:26.285Z,96382.77
2019-04-07T11:31:55.386Z,96374.13
2019-04-07T11:34:28.222Z,96381.88
2019-04-07T11:36:57.104Z,96374.78
2019-04-07T11:39:33.711Z,96371.00
2019-04-07T11:44:57.512Z,96372.11
2019-04-07T11:47:26.538Z,96371.81
2019-04-07T11:49:53.934Z,96379.23
2019-04-07T11:52:21.042Z,96377.95
2019-04-07T11:54:51.160Z,96377.97
2019-04-07T11:58:03.645Z,96375.28
2019-04-07T11:59:57.588Z,96370.62
2019-04-07T12:02:28.853Z,96379.34
2019-04-07T12:04:58.972Z,96366.94
2019-04-07T12:07:31.131Z,96370.25
2019-04-07T12:10:03.017Z,96368.97
2019-04-07T12:12:31.125Z,96371.30
2019-04-07T12:14:58.890Z,96361.62
2019-04-07T12:17:25.655Z,96353.48
2019-04-07T12:19:55.987Z,96357.70
2019-04-07T12:22:23.698Z,96360.95
2019-04-07T12:24:52.131Z,96358.61
2019-04-07T12:27:21.605Z,96350.44
2019-04-07T12:29:49.507Z,96355.04
2019-04-07T12:32:17.058Z,96348.61
2019-04-07T12:34:46.392Z,96354.54
2019-04-07T12:37:12.899Z,96347.24
2019-04-07T12:39:40.715Z,96349.66
2019-04-07T12:42:08.480Z,96352.03
2019-04-07T12:44:36.453Z,96347.12
2019-04-07T12:47:03.275Z,96342.79
2019-04-07T12:49:30.141Z,96338.17
2019-04-07T12:51:57.108Z,96339.98
2019-04-07T12:54:24.410Z,96339.00
2019-04-07T12:56:51.288Z,96338.91
2019-04-07T12:59:19.126Z,96338.66
2019-04-07T13:01:48.481Z,96336.23
2019-04-07T13:04:15.473Z,96343.61
2019-04-07T13:06:45.222Z,96342.25
2019-04-07T13:09:11.460Z,96341.97
2019-04-07T13:11:42.748Z,96337.14
2019-04-07T13:14:09.561Z,96341.73
2019-04-07T13:16:35.960Z,96344.22
2019-04-07T13:19:04.119Z,96345.52
2019-04-07T13:21:32.208Z,96346.59
2019-04-07T13:23:59.380Z,96346.44
2019-04-07T13:26:30.255Z,96346.83
2019-04-07T13:28:54.974Z,96344.20
2019-04-07T13:31:21.848Z,96337.62
2019-04-07T13:33:48.732Z,96337.77
2019-04-07T13:36:16.010Z,96328.80
2019-04-07T13:38:43.183Z,96335.01
2019-04-07T13:41:10.469Z,96328.98
2019-04-07T13:43:38.096Z,96331.70
2019-04-07T13:46:04.736Z,96334.51
2019-04-07T13:48:34.397Z,96338.33
2019-04-07T13:51:01.075Z,96336.85
2019-04-07T13:53:30.523Z,96327.93
2019-04-07T13:55:57.247Z,96329.06
2019-04-07T13:58:25.030Z,96335.56
2019-04-07T14:00:52.972Z,96332.19
2019-04-07T14:03:23.372Z,96329.30
2019-04-07T14:05:49.096Z,96331.30
2019-04-07T14:08:16.366Z,96330.33
2019-04-07T14:10:43.939Z,96337.09
2019-04-07T14:13:10.828Z,96333.53
2019-04-07T14:15:37.634Z,96334.02
2019-04-07T14:18:04.794Z,96344.70
2019-04-07T14:20:31.808Z,96345.13
2019-04-07T14:22:59.152Z,96349.14
2019-04-07T14:25:26.779Z,96349.58
2019-04-07T14:27:53.724Z,96352.95
2019-04-07T14:30:21.298Z,96354.50
2019-04-07T14:32:50.742Z,96348.05
2019-04-07T14:35:19.419Z,96348.63
2019-04-07T14:37:46.294Z,96351.70
2019-04-07T14:40:13.285Z,96351.61
2019-04-07T14:42:40.662Z,96357.86
2019-04-07T14:45:07.807Z,96353.57
2019-04-07T14:47:34.966Z,96352.44
2019-04-07T14:50:02.035Z,96356.39
2019-04-07T14:52:31.871Z,96353.34
2019-04-07T14:54:59.911Z,96356.40
2019-04-07T14:57:26.914Z,96360.73
2019-04-07T14:59:54.534Z,96361.55
2019-04-07T15:02:22.765Z,96363.46
2019-04-07T15:04:50.946Z,96359.91
2019-04-07T15:07:22.145Z,96357.06
2019-04-07T15:09:50.009Z,96360.45
2019-04-07T15:12:23.896Z,96363.39
2019-04-07T15:14:48.041Z,96359.27
2019-04-07T15:17:16.600Z,96358.66
2019-04-07T15:19:44.212Z,96359.58
2019-04-07T15:22:12.160Z,96368.35
2019-04-07T15:24:39.582Z,96366.99
2019-04-07T15:27:07.893Z,96364.05
2019-04-07T15:29:39.418Z,96369.60
2019-04-07T15:32:06.001Z,96368.67
2019-04-07T15:34:33.265Z,96372.90
2019-04-07T15:37:00.856Z,96375.25
2019-04-07T15:39:28.912Z,96373.34
2019-04-07T15:41:56.656Z,96375.36
2019-04-07T15:44:23.473Z,96382.75
2019-04-07T15:46:53.273Z,96380.40
2019-04-07T15:49:20.475Z,96379.84
2019-04-07T15:51:48.780Z,96377.75
2019-04-07T15:54:22.322Z,96379.90
2019-04-07T15:56:49.290Z,96387.09
2019-04-07T15:59:17.639Z,96381.20
2019-04-07T16:01:44.137Z,96387.59
2019-04-07T16:04:11.767Z,96393.22
2019-04-07T16:06:39.762Z,96396.45
2019-04-07T16:09:11.799Z,96389.55
2019-04-07T16:11:35.814Z,96395.50
2019-04-07T16:14:08.692Z,96397.94
2019-04-07T16:16:33.244Z,96396.59
2019-04-07T16:19:00.159Z,96397.13
2019-04-07T16:21:29.690Z,96400.30
2019-04-07T16:23:56.063Z,96406.41
2019-04-07T16:26:24.755Z,96409.59
2019-04-07T16:28:51.994Z,96409.03
2019-04-07T16:31:19.789Z,96416.49
2019-04-07T16:33:47.522Z,96417.87
2019-04-07T16:36:15.414Z,96420.55
2019-04-07T16:38:44.083Z,96420.56
2019-04-07T16:41:13.770Z,96421.42
2019-04-07T16:43:41.991Z,96419.59
2019-04-07T16:46:12.247Z,96420.66
2019-04-07T16:48:40.246Z,96412.92
2019-04-07T16:51:07.934Z,96407.31
2019-04-07T16:53:37.928Z,96403.58
2019-04-07T16:56:04.124Z,96401.94
2019-04-07T16:58:35.319Z,96404.86
2019-04-07T17:01:01.239Z,96396.05
2019-04-07T17:03:29.579Z,96398.90
2019-04-07T17:05:59.344Z,96391.94
2019-04-07T17:11:13.993Z,96398.51
2019-04-07T17:13:42.647Z,96397.39
2019-04-07T17:16:11.851Z,96401.89
2019-04-07T17:18:41.114Z,96397.42
2019-04-07T17:21:09.487Z,96399.80
2019-04-07T17:23:38.625Z,96394.61
2019-04-07T17:26:14.449Z,96391.08
2019-04-07T17:28:57.974Z,96391.63
2019-04-07T17:31:27.084Z,96388.94
2019-04-07T17:33:58.628Z,96387.33
2019-04-07T17:36:25.309Z,96395.95
2019-04-07T17:38:55.180Z,96392.25
2019-04-07T17:41:25.846Z,96396.23
2019-04-07T17:43:58.414Z,96397.27
2019-04-07T17:46:30.628Z,96395.94
2019-04-07T17:48:57.185Z,96396.73
2019-04-07T17:51:26.134Z,96406.00
2019-04-07T17:53:53.950Z,96399.62
2019-04-07T17:56:43.144Z,96409.45
2019-04-07T17:59:04.443Z,96401.97
2019-04-07T18:01:44.523Z,96404.14
2019-04-07T18:04:03.701Z,96406.99
2019-04-07T18:06:40.639Z,96409.47
2019-04-07T18:09:07.942Z,96402.17
2019-04-07T18:14:10.391Z,96413.72
2019-04-07T18:16:40.737Z,96414.01
2019-04-07T18:19:15.561Z,96420.92
2019-04-07T18:21:51.517Z,96418.98
2019-04-07T18:24:18.075Z,96426.59
2019-04-07T18:26:48.133Z,96423.14
2019-04-07T18:29:29.406Z,96434.80
2019-04-07T18:32:02.822Z,96434.00
2019-04-07T18:34:31.452Z,96433.77
2019-04-07T18:36:59.938Z,96431.86
2019-04-07T18:39:27.483Z,96428.78
2019-04-07T18:41:56.094Z,96428.43
2019-04-07T18:44:42.827Z,96427.92
2019-04-07T18:50:04.063Z,96430.44
2019-04-07T18:52:30.567Z,96432.14
2019-04-07T18:55:05.757Z,96432.68
2019-04-07T18:57:32.480Z,96437.98
2019-04-07T19:00:04.145Z,96435.63
2019-04-07T19:02:30.103Z,96431.97
2019-04-07T19:05:00.198Z,96434.09
2019-04-07T19:07:29.216Z,96442.50
2019-04-07T19:10:06.463Z,96436.73
2019-04-07T19:12:29.990Z,96445.98
2019-04-07T19:15:08.044Z,96445.25
2019-04-07T19:17:33.640Z,96448.67
2019-04-07T19:19:59.862Z,96435.06
2019-04-07T19:22:31.419Z,96431.41
2019-04-07T19:27:43.544Z,96439.34
2019-04-07T19:30:13.100Z,96442.70
2019-04-07T19:32:38.882Z,96436.61
2019-04-07T19:35:05.861Z,96440.24
2019-04-07T19:37:32.775Z,96441.27
2019-04-07T19:40:01.557Z,96444.67
2019-04-07T19:42:28.525Z,96439.52
2019-04-07T19:44:55.506Z,96430.86
2019-04-07T19:47:22.700Z,96442.55
2019-04-07T19:49:50.518Z,96441.86
2019-04-07T19:52:17.798Z,96445.02
2019-04-07T19:54:49.457Z,96447.19
2019-04-07T19:57:14.247Z,96444.58
2019-04-07T19:59:42.896Z,96437.82
2019-04-07T20:02:09.672Z,96441.81
2019-04-07T20:04:37.179Z,96443.14
2019-04-07T20:07:04.878Z,96445.56
2019-04-07T20:09:32.119Z,96446.31
2019-04-07T20:12:02.215Z,96444.98
2019-04-07T20:14:28.451Z,96442.16
2019-04-07T20:16:55.612Z,96439.20
2019-04-07T20:19:22.424Z,96442.06
2019-04-07T20:21:54.704Z,96439.60
2019-04-07T20:24:17.744Z,96443.44
2019-04-07T20:26:44.968Z,96453.25
2019-04-07T20:29:11.991Z,96459.03
2019-04-07T20:31:38.733Z,96463.89
2019-04-07T20:34:06.120Z,96459.66
2019-04-07T20:36:33.786Z,96457.39
2019-04-07T20:39:00.723Z,96459.17
2019-04-07T20:41:28.149Z,96465.34
2019-04-07T20:43:55.764Z,96460.40
2019-04-07T20:46:23.881Z,96461.08
2019-04-07T20:48:50.676Z,96462.48
2019-04-07T20:51:17.914Z,96463.23
2019-04-07T20:53:45.157Z,96469.02
2019-04-07T20:56:13.001Z,96472.37
2019-04-07T20:58:46.403Z,96470.47
2019-04-07T21:01:11.308Z,96472.94
2019-04-07T21:03:36.559Z,96480.04
2019-04-07T21:06:06.412Z,96475.09
2019-04-07T21:08:34.278Z,96476.41
2019-04-07T21:11:01.556Z,96478.19
2019-04-07T21:13:28.946Z,96478.31
2019-04-07T21:15:55.554Z,96481.05
2019-04-07T21:18:23.655Z,96477.61
2019-04-07T21:20:50.902Z,96478.23
2019-04-07T21:23:19.481Z,96478.98
2019-04-07T21:25:47.890Z,96480.75
2019-04-07T21:28:14.516Z,96478.30
2019-04-07T21:33:31.373Z,96479.78
2019-04-07T21:36:13.001Z,96483.50
2019-04-07T21:38:41.587Z,96477.26
2019-04-07T21:41:19.342Z,96480.26
2019-04-07T21:43:47.090Z,96476.71
2019-04-07T21:46:22.415Z,96472.48
2019-04-07T21:48:48.703Z,96474.44
2019-04-07T21:51:19.776Z,96476.03
2019-04-07T21:53:50.408Z,96471.27
2019-04-07T21:56:22.211Z,96478.69
2019-04-07T21:58:48.633Z,96477.36
2019-04-07T22:01:19.944Z,96479.58
2019-04-07T22:03:49.319Z,96482.98
2019-04-07T22:06:17.733Z,96479.70
2019-04-07T22:08:46.687Z,96478.74
2019-04-07T22:11:13.269Z,96479.02
2019-04-07T22:13:40.748Z,96472.63
2019-04-07T22:16:07.997Z,96475.33
2019-04-07T22:18:37.518Z,96465.38
2019-04-07T22:21:03.406Z,96471.14
2019-04-07T22:23:31.803Z,96474.78
2019-04-07T22:26:12.638Z,96480.13
2019-04-07T22:28:36.144Z,96480.53
2019-04-07T22:31:03.625Z,96480.37
2019-04-07T22:33:32.428Z,96488.69
2019-04-07T22:35:59.618Z,96488.83
2019-04-07T22:38:27.350Z,96486.45
2019-04-07T22:40:54.609Z,96485.70
2019-04-07T22:43:21.299Z,96485.00
2019-04-07T22:45:55.771Z,96482.44
2019-04-07T22:48:16.498Z,96484.36
2019-04-07T22:50:43.461Z,96478.11
2019-04-07T22:55:58.966Z,96480.53
2019-04-07T22:58:25.839Z,96485.22
2019-04-07T23:00:52.417Z,96479.87
2019-04-07T23:03:19.658Z,96484.31
2019-04-07T23:05:47.063Z,96482.57
2019-04-07T23:08:14.545Z,96473.51
2019-04-07T23:10:42.215Z,96474.09
2019-04-07T23:13:13.288Z,96469.32
2019-04-07T23:15:45.631Z,96472.22
2019-04-07T23:18:13.770Z,96473.16
2019-04-07T23:20:44.462Z,96473.84
2019-04-07T23:23:15.390Z,96478.27
2019-04-07T23:28:30.672Z,96473.21
2019-04-07T23:30:59.035Z,96468.88
2019-04-07T23:33:27.641Z,96475.91
2019-04-07T23:35:57.514Z,96472.58
2019-04-07T23:38:30.446Z,96471.27
2019-04-07T23:41:03.293Z,96466.63
2019-04-07T23:43:39.996Z,96464.91
2019-04-07T23:46:05.126Z,96460.83
2019-04-07T23:48:36.185Z,96462.62
2019-04-07T23:51:09.032Z,96471.75
2019-04-07T23:53:36.481Z,96475.69
2019-04-07T23:56:10.044Z,96463.03
